Time;durP1;ratioP1;P1;durP2;ratioP2;P2;SDS_P1;SDS_P2;PMS_P1;PMS_P2;Temp;Humidity;BMP_temperature;BMP_pressure;BME280_temperature;BME280_humidity;BME280_pressure;Samples;Min_cycle;Max_cycle;Signal;HPM_P1;HPM_P2
2023/03/28 00:02:09;;;;;;;3.40;3.10;;;;;;;3.80;44.98;100718.59;10010528;29;20703;-71
2023/03/28 00:07:12;;;;;;;3.83;3.53;;;;;;;3.76;44.77;100719.81;10009541;29;20248;-72
2023/03/28 00:12:13;;;;;;;7.83;3.67;;;;;;;3.97;44.55;100731.41;10007728;29;20650;-71
2023/03/28 00:17:16;;;;;;;3.50;3.20;;;;;;;4.48;44.33;100756.66;10010091;29;20257;-72
2023/03/28 00:22:22;;;;;;;7.17;3.53;;;;;;;3.92;44.85;100765.34;10026970;29;20277;-72
2023/03/28 00:27:24;;;;;;;6.70;3.80;;;;;;;3.44;45.45;100770.72;10010873;29;20726;-72
2023/03/28 00:32:26;;;;;;;4.17;3.27;;;;;;;5.57;43.14;100756.75;10020233;29;20230;-72
2023/03/28 00:37:28;;;;;;;7.10;3.83;;;;;;;5.11;42.41;100774.66;10011760;29;20239;-71
2023/03/28 00:42:40;;;;;;;5.17;3.30;;;;;;;4.12;43.81;100789.47;10008693;29;20239;-71
2023/03/28 00:47:50;;;;;;;3.90;3.23;;;;;;;4.69;43.79;100782.44;9999811;29;20235;-71
2023/03/28 00:53:01;;;;;;;3.77;2.73;;;;;;;4.92;43.61;100791.22;10005444;29;20218;-70
2023/03/28 00:58:06;;;;;;;5.37;3.30;;;;;;;5.21;42.84;100793.34;10007163;29;20244;-70
2023/03/28 01:03:12;;;;;;;4.30;3.07;;;;;;;4.64;43.14;100797.88;10014588;29;20250;-70
2023/03/28 01:08:23;;;;;;;3.40;3.20;;;;;;;5.04;43.02;100795.53;10007684;29;20609;-70
2023/03/28 01:13:32;;;;;;;4.43;3.30;;;;;;;5.13;43.20;100807.22;10015528;29;20238;-70
2023/03/28 01:18:40;;;;;;;4.00;3.43;;;;;;;4.77;43.63;100798.59;10017707;29;20607;-71
2023/03/28 01:23:51;;;;;;;3.63;2.93;;;;;;;5.20;42.59;100802.25;10019830;29;20285;-70
2023/03/28 01:29:39;;;;;;;3.57;3.10;;;;;;;5.44;42.33;100818.00;10014085;29;20790;-71
2023/03/28 01:35:10;;;;;;;4.00;3.57;;;;;;;5.83;41.69;100818.38;10014869;29;20235;-71
2023/03/28 01:40:12;;;;;;;6.30;4.17;;;;;;;5.77;42.41;100818.88;10006356;29;20256;-70
2023/03/28 01:45:32;;;;;;;4.57;3.20;;;;;;;6.77;41.26;100829.88;10011206;29;20240;-70
2023/03/28 01:51:08;;;;;;;6.00;3.70;;;;;;;5.01;43.94;100830.25;10013937;29;20245;-70
2023/03/28 01:56:30;;;;;;;3.50;3.20;;;;;;;4.93;44.84;100827.41;10022912;29;20245;-70
2023/03/28 02:01:44;;;;;;;5.27;3.70;;;;;;;5.47;43.92;100810.63;10005620;29;20596;-71
2023/03/28 02:06:48;;;;;;;5.87;4.07;;;;;;;4.48;45.41;100812.31;10016211;29;20801;-71
2023/03/28 02:11:56;;;;;;;5.60;4.00;;;;;;;5.29;44.89;100802.34;10014470;29;20242;-70
2023/03/28 02:17:03;;;;;;;5.90;3.93;;;;;;;4.01;45.67;100800.88;10007914;29;20242;-70
2023/03/28 02:22:18;;;;;;;4.50;4.10;;;;;;;4.88;45.70;100797.72;10008227;29;20241;-70
2023/03/28 02:27:21;;;;;;;5.73;4.03;;;;;;;5.90;43.86;100792.97;10007264;29;20258;-72
2023/03/28 02:32:23;;;;;;;4.40;4.00;;;;;;;4.67;45.04;100803.75;10004960;29;20267;-70
2023/03/28 02:37:37;;;;;;;5.03;4.00;;;;;;;4.64;45.21;100804.00;10008774;29;20318;-72
2023/03/28 02:43:04;;;;;;;5.87;3.70;;;;;;;5.75;44.08;100788.94;10012145;29;20450;-70
2023/03/28 02:48:35;;;;;;;5.27;3.70;;;;;;;5.63;44.00;100796.13;10021939;29;20239;-70
2023/03/28 02:53:43;;;;;;;4.70;4.27;;;;;;;5.31;43.95;100788.97;9993321;29;20237;-70
2023/03/28 02:59:17;;;;;;;5.30;3.70;;;;;;;4.73;46.06;100799.81;10012936;29;20251;-72
2023/03/28 03:04:19;;;;;;;4.77;3.90;;;;;;;5.91;44.00;100789.34;9985950;29;20327;-71
2023/03/28 03:09:21;;;;;;;8.33;3.97;;;;;;;4.14;46.20;100793.69;9991774;29;20258;-71
2023/03/28 03:14:24;;;;;;;4.83;4.20;;;;;;;4.46;45.88;100771.84;10011628;29;20644;-69
2023/03/28 03:19:26;;;;;;;6.10;4.17;;;;;;;6.11;43.67;100784.16;10011587;29;20251;-70
2023/03/28 03:24:27;;;;;;;4.73;3.80;;;;;;;4.44;45.94;100786.16;10007467;29;20245;-71
2023/03/28 03:34:59;;;;;;;4.63;4.20;;;;;;;5.07;44.61;100787.34;3026226;24;20260;-72
2023/03/28 03:40:02;;;;;;;5.60;4.47;;;;;;;5.94;44.22;100785.59;10039963;29;20249;-74
2023/03/28 03:45:05;;;;;;;5.40;4.17;;;;;;;5.50;44.47;100788.28;10038745;29;20250;-73
2023/03/28 03:50:08;;;;;;;9.37;3.93;;;;;;;6.08;43.53;100779.94;10038793;29;20314;-72
2023/03/28 03:55:10;;;;;;;6.10;4.67;;;;;;;5.74;43.96;100795.22;10045073;29;20260;-72
2023/03/28 04:00:12;;;;;;;4.70;4.13;;;;;;;5.56;44.22;100794.91;10042363;29;20254;-72
2023/03/28 04:05:14;;;;;;;6.63;4.87;;;;;;;6.14;43.46;100803.31;10041052;29;20768;-72
2023/03/28 04:10:15;;;;;;;5.73;4.30;;;;;;;5.33;44.46;100800.28;10043678;29;20279;-72
2023/03/28 04:15:17;;;;;;;6.53;4.57;;;;;;;4.78;45.16;100800.28;10047779;29;20230;-73
2023/03/28 04:20:19;;;;;;;8.00;5.20;;;;;;;5.33;44.71;100805.59;10049844;29;20246;-72
2023/03/28 04:25:23;;;;;;;5.67;5.07;;;;;;;5.98;43.44;100808.28;10048694;29;20242;-72
2023/03/28 04:30:25;;;;;;;4.43;4.03;;;;;;;5.97;43.49;100809.25;10046361;29;21681;-72
2023/03/28 04:35:28;;;;;;;4.87;4.33;;;;;;;5.93;43.70;100816.63;10047113;29;20242;-72
2023/03/28 04:40:30;;;;;;;7.83;5.63;;;;;;;6.08;43.56;100822.47;10050248;29;20669;-72
2023/03/28 04:45:32;;;;;;;8.23;5.00;;;;;;;4.90;44.76;100812.56;10050005;29;20633;-72
2023/03/28 04:50:33;;;;;;;6.50;4.83;;;;;;;5.78;43.61;100823.22;10046456;29;20328;-72
2023/03/28 04:55:36;;;;;;;6.20;5.00;;;;;;;5.20;44.75;100834.97;10045762;29;20238;-72
2023/03/28 05:00:38;;;;;;;7.30;6.07;;;;;;;5.33;44.16;100838.31;10045656;29;20721;-72
2023/03/28 05:05:40;;;;;;;7.77;5.40;;;;;;;5.25;44.47;100845.19;10043884;29;20231;-72
2023/03/28 05:10:44;;;;;;;7.87;5.37;;;;;;;5.65;43.77;100842.81;10045436;29;20249;-72
2023/03/28 05:15:47;;;;;;;6.17;4.57;;;;;;;5.60;44.22;100854.78;10040656;29;20246;-72
2023/03/28 05:20:49;;;;;;;5.93;4.90;;;;;;;5.19;44.55;100861.63;10043438;29;20242;-72
2023/03/28 05:25:52;;;;;;;7.97;5.00;;;;;;;5.15;44.51;100858.38;10044787;29;20615;-72
2023/03/28 05:30:54;;;;;;;5.87;4.60;;;;;;;5.13;44.53;100860.28;10036398;29;20766;-72
2023/03/28 05:35:55;;;;;;;8.77;5.80;;;;;;;5.79;43.87;100856.75;10043731;29;20652;-72
2023/03/28 05:40:57;;;;;;;12.43;6.40;;;;;;;5.88;43.65;100870.13;10039761;29;20611;-72
2023/03/28 05:45:59;;;;;;;8.20;6.27;;;;;;;5.62;44.13;100874.94;10042503;29;20773;-72
2023/03/28 05:51:01;;;;;;;9.50;7.40;;;;;;;5.83;44.23;100869.69;10040504;29;20318;-72
2023/03/28 05:56:03;;;;;;;8.83;6.17;;;;;;;6.06;43.62;100870.44;10042903;29;20237;-72
2023/03/28 06:01:05;;;;;;;14.70;8.03;;;;;;;4.83;45.70;100882.09;10042526;29;20257;-72
2023/03/28 06:06:07;;;;;;;12.60;7.73;;;;;;;6.00;43.93;100886.88;10040780;29;20757;-72
2023/03/28 06:11:09;;;;;;;7.93;6.73;;;;;;;4.85;46.17;100870.44;10040254;29;20265;-71
2023/03/28 06:16:11;;;;;;;8.20;6.50;;;;;;;4.68;46.48;100876.22;10040644;29;20549;-71
2023/03/28 06:21:12;;;;;;;6.57;5.47;;;;;;;4.85;46.04;100862.47;10042767;29;20242;-72
2023/03/28 06:26:14;;;;;;;7.20;5.57;;;;;;;5.48;45.92;100872.53;10040536;29;20237;-72
2023/03/28 06:31:16;;;;;;;6.27;5.67;;;;;;;4.70;47.08;100882.25;10042146;29;20306;-72
2023/03/28 06:36:18;;;;;;;6.63;5.60;;;;;;;4.81;46.66;100873.44;10040273;29;20622;-74
2023/03/28 06:41:19;;;;;;;7.63;6.20;;;;;;;4.18;48.20;100876.44;10039416;29;20849;-72
2023/03/28 06:46:21;;;;;;;6.73;5.93;;;;;;;4.12;48.59;100879.53;10039093;29;20248;-73
2023/03/28 06:51:24;;;;;;;9.20;6.53;;;;;;;5.49;46.98;100880.38;10044736;29;20341;-74
2023/03/28 06:56:26;;;;;;;8.17;5.73;;;;;;;5.96;45.57;100877.47;10044909;29;20229;-72
2023/03/28 07:01:27;;;;;;;8.67;5.97;;;;;;;7.06;44.11;100887.69;10041845;29;20258;-72
2023/03/28 07:06:29;;;;;;;8.73;5.97;;;;;;;6.31;45.30;100907.38;10039478;29;20270;-73
2023/03/28 07:11:31;;;;;;;9.00;6.30;;;;;;;6.30;45.69;100905.72;10040345;29;20253;-72
2023/03/28 07:16:32;;;;;;;10.03;6.57;;;;;;;6.44;45.82;100903.56;10036598;29;20912;-72
2023/03/28 07:21:34;;;;;;;8.57;6.80;;;;;;;7.23;44.80;100904.84;10041792;29;20296;-72
2023/03/28 07:26:35;;;;;;;8.47;6.17;;;;;;;6.72;45.37;100921.66;10040339;29;20254;-73
2023/03/28 07:31:37;;;;;;;7.73;6.20;;;;;;;6.68;44.90;100933.53;10036904;29;20255;-72
2023/03/28 07:36:39;;;;;;;7.47;6.10;;;;;;;6.89;44.93;100941.53;10039354;29;20322;-72
2023/03/28 07:41:41;;;;;;;10.30;6.40;;;;;;;6.97;44.93;100937.25;10039721;29;20254;-73
2023/03/28 07:46:42;;;;;;;8.53;6.37;;;;;;;6.92;45.47;100955.41;10043029;29;20315;-72
2023/03/28 07:51:44;;;;;;;7.30;6.10;;;;;;;7.17;45.27;100947.97;10047293;29;20314;-73
2023/03/28 07:56:47;;;;;;;9.03;6.50;;;;;;;7.49;44.32;100937.16;10043450;29;20256;-73
2023/03/28 08:01:48;;;;;;;9.40;7.00;;;;;;;5.46;45.61;100928.41;10043223;29;20333;-73
2023/03/28 08:06:51;;;;;;;13.47;6.53;;;;;;;6.83;44.43;100961.50;10045323;29;20238;-73
2023/03/28 08:11:52;;;;;;;10.13;5.57;;;;;;;7.34;45.06;100976.63;10047541;29;20373;-73
2023/03/28 08:16:54;;;;;;;9.17;6.70;;;;;;;7.10;45.73;100986.75;10046179;29;20235;-73
2023/03/28 08:21:57;;;;;;;9.97;6.97;;;;;;;7.76;44.40;100951.66;10042117;29;20275;-73
2023/03/28 08:26:59;;;;;;;7.10;5.57;;;;;;;8.02;44.58;100964.50;10045900;29;20235;-73
2023/03/28 08:32:02;;;;;;;9.97;6.30;;;;;;;6.87;45.26;100973.59;10042911;29;20353;-73
2023/03/28 08:37:04;;;;;;;9.73;5.33;;;;;;;7.55;44.70;100983.72;10044422;29;20699;-73
2023/03/28 08:42:15;;;;;;;6.73;5.20;;;;;;;7.44;44.53;100997.13;10042956;29;20242;-73
2023/03/28 08:47:40;;;;;;;5.97;5.23;;;;;;;9.00;41.84;100994.66;10042841;29;20261;-73
2023/03/28 08:52:43;;;;;;;10.50;6.27;;;;;;;7.03;44.42;101010.38;10043111;29;20258;-73
2023/03/28 08:57:49;;;;;;;9.23;5.73;;;;;;;8.99;42.71;100983.13;10043466;29;20242;-73
2023/03/28 09:02:51;;;;;;;8.60;5.37;;;;;;;8.16;42.75;101008.56;10044307;29;20244;-74
2023/03/28 09:08:07;;;;;;;6.20;4.67;;;;;;;6.65;44.24;100994.97;10042793;29;20239;-73
2023/03/28 09:13:15;;;;;;;7.13;4.97;;;;;;;8.16;42.67;100981.91;10042418;29;20757;-73
2023/03/28 09:18:56;;;;;;;7.30;4.93;;;;;;;9.22;41.36;100991.63;10042643;29;20231;-73
2023/03/28 09:23:57;;;;;;;10.03;5.57;;;;;;;6.44;43.97;100942.63;10041740;29;20243;-73
2023/03/28 09:29:09;;;;;;;8.03;4.90;;;;;;;8.67;42.09;100984.28;10042375;29;20239;-73
2023/03/28 09:34:26;;;;;;;7.00;4.90;;;;;;;7.64;40.49;101008.69;10072795;23;20305;-71
2023/03/28 09:39:39;;;;;;;4.83;4.40;;;;;;;8.50;40.66;100992.16;10042988;29;20250;-72
2023/03/28 09:44:47;;;;;;;5.23;4.73;;;;;;;7.04;41.98;100947.34;10002535;29;20262;-72
2023/03/28 09:49:57;;;;;;;5.40;4.53;;;;;;;8.91;41.47;100995.50;10006313;29;20672;-71
2023/03/28 09:55:19;;;;;;;7.57;5.17;;;;;;;7.11;42.28;100988.44;10004553;29;20335;-71
2023/03/28 10:00:21;;;;;;;7.37;4.67;;;;;;;8.61;40.84;100992.84;10000826;29;20400;-71
2023/03/28 10:05:42;;;;;;;7.47;4.30;;;;;;;8.52;41.22;101008.84;10001477;29;20239;-71
2023/03/28 10:10:52;;;;;;;7.80;4.47;;;;;;;8.88;39.84;101001.16;10003644;29;20244;-72
2023/03/28 10:15:57;;;;;;;6.93;3.90;;;;;;;7.13;40.67;100974.00;10001961;29;20243;-71
2023/03/28 10:21:08;;;;;;;6.33;4.07;;;;;;;8.37;38.81;101006.63;10004013;29;20793;-72
2023/03/28 10:26:15;;;;;;;8.97;5.10;;;;;;;8.76;39.45;101022.63;10006628;29;20250;-71
2023/03/28 10:31:27;;;;;;;5.93;4.47;;;;;;;9.62;38.95;100999.47;10002572;29;20251;-72
2023/03/28 10:36:42;;;;;;;5.57;4.20;;;;;;;10.28;38.61;100987.69;10010249;29;20251;-71
2023/03/28 10:41:53;;;;;;;5.57;3.83;;;;;;;9.85;38.63;100966.00;9997454;29;20351;-72
2023/03/28 10:47:04;;;;;;;9.03;4.27;;;;;;;8.57;39.96;100969.25;10004455;29;20255;-72
2023/03/28 10:52:33;;;;;;;3.57;3.27;;;;;;;8.21;39.70;100991.16;10003474;29;20254;-72
2023/03/28 10:58:02;;;;;;;5.77;4.00;;;;;;;8.66;38.76;100957.75;10005022;29;20475;-71
2023/03/28 11:06:42;;;;;;;6.67;2.93;;;;;;;7.74;39.99;100932.28;10507134;27;21155;-72
2023/03/28 11:12:25;;;;;;;4.53;3.20;;;;;;;8.59;38.76;100921.91;10388700;28;20235;-70
2023/03/28 11:17:49;;;;;;;5.73;4.30;;;;;;;8.90;38.72;100916.41;10349228;28;20327;-70
2023/03/28 11:23:20;;;;;;;5.43;3.60;;;;;;;8.87;37.65;100912.19;10349526;28;20243;-70
2023/03/28 11:28:52;;;;;;;9.00;3.77;;;;;;;9.93;37.80;100909.94;10348461;28;20248;-72
2023/03/28 11:34:30;;;;;;;4.53;3.40;;;;;;;9.61;36.82;100894.41;10346515;28;20275;-70
2023/03/28 11:39:55;;;;;;;4.53;3.30;;;;;;;9.69;36.92;100873.09;10305520;28;20777;-70
2023/03/28 11:45:07;;;;;;;6.10;4.00;;;;;;;9.52;37.33;100888.13;10349774;28;20240;-72
2023/03/28 11:50:40;;;;;;;7.20;4.47;;;;;;;7.63;38.63;100885.31;10345956;28;20708;-72
2023/03/28 11:55:50;;;;;;;5.30;3.33;;;;;;;9.26;38.18;100863.94;10349388;28;20685;-70
2023/03/28 12:01:14;;;;;;;4.93;3.83;;;;;;;8.08;38.88;100892.81;10345185;28;20244;-72
2023/03/28 12:06:25;;;;;;;8.40;3.60;;;;;;;8.48;36.82;100870.41;10346317;28;20658;-72
2023/03/28 12:12:02;;;;;;;6.73;3.63;;;;;;;8.97;37.27;100842.75;10351561;28;20607;-70
2023/03/28 12:17:34;;;;;;;6.83;3.50;;;;;;;8.61;37.13;100843.44;10308141;28;20613;-72
2023/03/28 12:22:46;;;;;;;5.50;3.47;;;;;;;9.87;36.94;100803.63;10314884;28;20230;-70
2023/03/28 12:28:00;;;;;;;4.87;3.37;;;;;;;8.47;36.47;100833.22;10319861;28;20740;-70
2023/03/28 12:33:32;;;;;;;3.47;3.17;;;;;;;9.55;35.83;100813.00;10320885;28;20252;-72
2023/03/28 12:38:59;;;;;;;4.77;3.23;;;;;;;9.04;35.13;100838.50;10341523;28;20233;-72
2023/03/28 12:44:18;;;;;;;5.03;3.40;;;;;;;9.91;35.24;100786.28;10353801;28;20239;-72
2023/03/28 12:49:53;;;;;;;3.37;3.07;;;;;;;9.06;37.39;100815.16;10354611;28;20307;-71
2023/03/28 12:54:57;;;;;;;4.30;3.33;;;;;;;9.39;35.69;100812.84;10348720;28;20869;-72
2023/03/28 13:00:13;;;;;;;6.37;3.70;;;;;;;9.52;33.71;100791.94;10357638;28;20315;-71
2023/03/28 13:05:37;;;;;;;5.13;3.17;;;;;;;9.32;35.77;100803.78;10361548;28;20713;-72
2023/03/28 13:11:19;;;;;;;6.97;3.73;;;;;;;9.82;33.60;100739.06;10354101;28;20245;-72
2023/03/28 13:16:42;;;;;;;5.80;3.17;;;;;;;9.63;34.58;100782.00;10319319;28;20229;-72
2023/03/28 13:21:46;;;;;;;4.53;3.13;;;;;;;9.63;33.62;100763.31;10354335;28;20379;-72
2023/03/28 13:27:05;;;;;;;3.37;2.90;;;;;;;11.08;33.85;100730.47;10357780;28;20240;-71
2023/03/28 13:32:12;;;;;;;4.87;3.13;;;;;;;9.08;34.56;100714.41;10353577;28;20233;-72
2023/03/28 13:37:25;;;;;;;3.93;3.03;;;;;;;9.29;34.60;100731.94;10354398;28;20230;-71
2023/03/28 13:42:30;;;;;;;6.37;3.20;;;;;;;10.64;33.63;100693.19;10355044;28;20234;-71
2023/03/28 13:47:37;;;;;;;25.63;4.67;;;;;;;9.85;34.49;100703.19;10357994;28;20230;-72
2023/03/28 13:52:39;;;;;;;4.30;2.87;;;;;;;9.02;34.67;100697.13;10358499;28;20238;-72
2023/03/28 13:57:40;;;;;;;4.07;2.90;;;;;;;8.70;35.49;100697.59;10354817;28;20229;-72
2023/03/28 14:02:48;;;;;;;8.20;3.00;;;;;;;10.39;34.43;100652.13;10353488;28;20237;-71
2023/03/28 14:07:53;;;;;;;4.87;2.80;;;;;;;11.02;33.74;100632.06;10351964;28;20304;-71
2023/03/28 14:13:02;;;;;;;3.63;3.30;;;;;;;9.80;33.94;100668.88;10359698;28;20248;-71
2023/03/28 14:18:16;;;;;;;4.07;3.13;;;;;;;11.61;34.00;100626.50;10355311;28;20696;-71
2023/03/28 14:23:28;;;;;;;3.80;2.60;;;;;;;8.44;35.18;100602.28;10351353;28;20233;-71
2023/03/28 14:28:30;;;;;;;4.63;2.63;;;;;;;10.13;34.08;100610.25;10356446;28;20228;-71
2023/03/28 14:33:35;;;;;;;2.93;2.70;;;;;;;8.90;34.75;100502.69;10343967;28;20229;-70
2023/03/28 14:38:38;;;;;;;3.67;2.83;;;;;;;10.31;34.37;100604.81;10352255;28;20712;-71
2023/03/28 14:43:40;;;;;;;5.50;2.87;;;;;;;9.68;34.51;100600.66;10355602;28;20750;-71
2023/03/28 14:48:42;;;;;;;3.77;2.70;;;;;;;10.06;34.28;100583.31;10352114;28;20241;-71
2023/03/28 14:53:46;;;;;;;4.00;2.70;;;;;;;9.74;34.94;100584.81;10352419;28;20231;-71
2023/03/28 14:58:50;;;;;;;5.40;2.60;;;;;;;9.53;34.15;100512.22;10355157;28;20237;-71
2023/03/28 15:04:01;;;;;;;3.57;2.87;;;;;;;10.39;33.86;100529.06;10354557;28;20241;-71
2023/03/28 15:09:24;;;;;;;2.97;2.53;;;;;;;10.65;33.73;100526.25;10347625;28;20324;-72
2023/03/28 15:14:44;;;;;;;2.90;2.60;;;;;;;11.45;34.42;100472.72;10353838;28;20236;-71
2023/03/28 15:19:51;;;;;;;5.90;2.60;;;;;;;10.80;33.96;100483.59;10353782;28;20243;-71
2023/03/28 15:24:56;;;;;;;4.33;3.20;;;;;;;11.75;33.82;100427.41;10353450;28;20244;-72
2023/03/28 15:30:05;;;;;;;6.07;3.17;;;;;;;11.06;34.48;100448.59;10353959;28;20634;-71
2023/03/28 15:35:22;;;;;;;5.97;3.77;;;;;;;10.94;33.92;100452.66;10350987;28;20609;-71
2023/03/28 15:40:27;;;;;;;4.63;2.97;;;;;;;11.62;34.91;100409.22;10349312;28;20244;-72
2023/03/28 15:45:39;;;;;;;4.77;2.50;;;;;;;11.88;33.71;100418.78;10355937;28;20708;-72
2023/03/28 15:50:47;;;;;;;5.27;2.97;;;;;;;12.25;34.17;100397.53;10351145;28;20311;-71
2023/03/28 15:55:49;;;;;;;4.43;2.90;;;;;;;11.99;33.95;100412.16;10364800;28;20275;-71
2023/03/28 16:00:52;;;;;;;4.83;2.77;;;;;;;11.54;34.44;100387.78;10364824;28;20325;-71
2023/03/28 16:06:00;;;;;;;5.00;2.80;;;;;;;11.92;33.92;100365.63;10363450;28;20245;-72
2023/03/28 16:11:25;;;;;;;2.87;2.47;;;;;;;11.07;34.11;100386.81;10363979;28;20241;-70
2023/03/28 16:16:28;;;;;;;3.40;2.73;;;;;;;11.91;32.99;100375.53;10362161;28;20216;-70
2023/03/28 16:21:30;;;;;;;3.10;2.80;;;;;;;12.83;32.45;100349.53;10360211;28;20306;-68
2023/03/28 16:26:33;;;;;;;4.77;2.80;;;;;;;12.30;32.89;100352.22;10364788;28;20242;-69
2023/03/28 16:31:34;;;;;;;2.97;2.70;;;;;;;12.86;32.97;100317.75;10356727;28;20240;-68
2023/03/28 16:36:37;;;;;;;3.23;2.60;;;;;;;12.52;33.06;100311.09;10362190;28;20747;-71
2023/03/28 16:41:39;;;;;;;5.30;2.80;;;;;;;13.11;32.93;100298.66;10356280;28;20241;-70
2023/03/28 16:46:40;;;;;;;2.90;2.60;;;;;;;10.61;33.34;100227.84;10358197;28;20229;-70
2023/03/28 16:51:42;;;;;;;4.07;2.47;;;;;;;13.04;32.93;100271.69;10362699;28;20245;-70
2023/03/28 16:56:44;;;;;;;2.93;2.60;;;;;;;12.92;32.59;100270.50;10357781;28;20244;-70
2023/03/28 17:01:46;;;;;;;3.83;2.40;;;;;;;10.38;33.61;100206.34;10358168;28;20247;-70
2023/03/28 17:06:48;;;;;;;4.00;2.70;;;;;;;11.37;34.18;100245.03;10363985;28;20295;-70
2023/03/28 17:11:50;;;;;;;5.07;2.60;;;;;;;11.28;35.21;100230.00;10357118;28;20249;-70
2023/03/28 17:16:51;;;;;;;3.57;2.70;;;;;;;11.51;35.21;100231.88;10356666;28;20747;-70
2023/03/28 17:21:54;;;;;;;3.57;2.80;;;;;;;11.63;34.99;100207.16;10360195;28;20244;-70
2023/03/28 17:26:56;;;;;;;4.73;2.90;;;;;;;12.33;34.85;100194.38;10359882;28;20397;-70
2023/03/28 17:31:58;;;;;;;2.53;2.30;;;;;;;11.35;35.96;100189.94;10357215;28;20237;-70
2023/03/28 17:37:00;;;;;;;3.30;3.10;;;;;;;13.40;34.00;100157.97;10362828;28;20299;-70
2023/03/28 17:42:01;;;;;;;3.00;2.70;;;;;;;12.12;35.29;100170.13;10357037;28;20241;-70
2023/03/28 17:47:03;;;;;;;2.93;2.33;;;;;;;12.83;33.77;100175.78;10360872;28;20237;-70
2023/03/28 17:52:05;;;;;;;6.07;2.67;;;;;;;12.22;34.24;100151.91;10359287;28;20328;-70
2023/03/28 17:57:08;;;;;;;3.23;2.40;;;;;;;12.50;34.12;100154.78;10356939;28;20231;-70
2023/03/28 18:02:10;;;;;;;3.73;3.03;;;;;;;11.93;34.83;100145.53;10354927;28;20245;-70
2023/03/28 18:07:11;;;;;;;2.70;2.50;;;;;;;12.71;34.04;100150.47;10359520;28;20233;-70
2023/03/28 18:12:18;;;;;;;2.47;2.27;;;;;;;12.31;34.56;100136.53;10353763;28;20237;-67
2023/03/28 18:17:19;;;;;;;4.77;2.90;;;;;;;13.06;33.37;100140.69;10359906;28;20606;-72
2023/03/28 18:22:21;;;;;;;4.63;2.70;;;;;;;12.74;32.94;100129.44;10348627;28;20683;-77
2023/03/28 18:27:23;;;;;;;4.33;2.47;;;;;;;11.86;34.22;100117.78;10371347;28;20256;-75
2023/03/28 18:32:24;;;;;;;6.17;2.60;;;;;;;12.46;33.71;100145.38;10356419;28;20829;-75
2023/03/28 18:37:27;;;;;;;2.93;2.73;;;;;;;12.22;33.67;100135.81;10353562;28;20229;-71
2023/03/28 18:42:29;;;;;;;6.63;3.00;;;;;;;12.40;33.25;100148.84;10351994;28;20719;-76
2023/03/28 18:47:31;;;;;;;3.43;2.70;;;;;;;12.55;33.44;100157.72;10352691;28;20597;-74
2023/03/28 18:52:32;;;;;;;4.10;2.43;;;;;;;11.28;34.50;100112.13;10353724;28;20260;-71
2023/03/28 18:57:34;;;;;;;5.93;4.20;;;;;;;11.76;34.07;100131.47;10350030;28;20236;-70
2023/03/28 19:02:36;;;;;;;4.77;3.13;;;;;;;11.02;35.16;100152.69;10345486;28;20233;-72
2023/03/28 19:07:38;;;;;;;5.20;3.43;;;;;;;11.23;35.25;100149.34;10354018;28;20756;-73
2023/03/28 19:12:40;;;;;;;3.30;3.00;;;;;;;10.51;36.61;100150.44;10352075;28;20269;-70
2023/03/28 19:17:42;;;;;;;2.70;2.50;;;;;;;11.97;35.45;100135.25;10345612;28;20234;-73
2023/03/28 19:22:44;;;;;;;5.17;2.73;;;;;;;11.98;34.54;100145.81;10356814;28;20260;-72
2023/03/28 19:27:49;;;;;;;4.67;3.20;;;;;;;12.35;34.49;100117.19;10356946;28;20668;-71
2023/03/28 19:32:51;;;;;;;9.47;6.00;;;;;;;11.39;37.60;100132.31;10355136;28;20283;-71
2023/03/28 19:37:52;;;;;;;12.40;8.00;;;;;;;12.66;36.65;100100.00;10358168;28;20275;-69
2023/03/28 19:42:57;;;;;;;9.87;7.93;;;;;;;10.99;38.18;100078.91;10358031;28;20229;-70
2023/03/28 19:47:59;;;;;;;5.83;5.17;;;;;;;10.11;38.80;100008.72;10357345;28;20229;-70
2023/03/28 19:53:01;;;;;;;4.67;3.70;;;;;;;8.34;41.15;100024.69;10358753;28;20264;-70
2023/03/28 19:58:06;;;;;;;4.07;3.67;;;;;;;11.73;38.44;99979.03;10358649;28;20232;-71
2023/03/28 20:03:07;;;;;;;8.00;3.90;;;;;;;11.89;37.51;99975.28;10352856;28;20627;-70
2023/03/28 20:08:09;;;;;;;8.90;4.47;;;;;;;10.79;37.78;99973.31;10355402;28;20225;-66
2023/03/28 20:13:11;;;;;;;6.27;4.10;;;;;;;11.87;36.74;99963.91;10356018;28;20728;-68
2023/03/28 20:18:18;;;;;;;4.57;4.00;;;;;;;12.88;35.16;99937.00;10358667;28;20252;-70
2023/03/28 20:23:22;;;;;;;5.67;3.87;;;;;;;12.81;35.22;99997.91;10355098;28;20234;-69
2023/03/28 20:28:24;;;;;;;4.80;4.00;;;;;;;12.24;36.34;99980.81;10356516;28;20275;-69
2023/03/28 20:33:26;;;;;;;8.80;5.60;;;;;;;11.97;35.76;99982.41;10353747;28;20245;-69
2023/03/28 20:38:28;;;;;;;4.60;4.13;;;;;;;10.62;38.22;99962.72;10355653;28;20237;-69
2023/03/28 20:43:35;;;;;;;4.30;3.77;;;;;;;11.84;37.12;99991.09;10348224;28;20246;-69
2023/03/28 20:48:37;;;;;;;6.07;3.70;;;;;;;10.58;38.00;99973.97;10356850;28;20225;-69
2023/03/28 20:53:48;;;;;;;5.67;3.63;;;;;;;11.32;37.82;99979.50;10349284;28;20264;-70
2023/03/28 20:58:51;;;;;;;4.40;3.47;;;;;;;9.48;39.53;99906.28;10358948;28;20243;-69
2023/03/28 21:03:58;;;;;;;6.33;3.67;;;;;;;9.92;41.22;100009.16;10354215;28;20248;-69
2023/03/28 21:09:06;;;;;;;4.40;4.00;;;;;;;11.30;38.58;99989.53;10358967;28;20245;-70
2023/03/28 21:14:11;;;;;;;9.77;5.67;;;;;;;11.23;38.77;99994.78;10352470;28;20335;-69
2023/03/28 21:19:13;;;;;;;6.43;4.87;;;;;;;11.43;38.19;99991.59;10355087;28;20221;-69
2023/03/28 21:24:14;;;;;;;5.43;4.60;;;;;;;12.52;37.15;99969.38;10352763;28;20827;-69
2023/03/28 21:29:16;;;;;;;5.60;4.90;;;;;;;9.69;41.06;100022.44;10355831;28;20226;-69
2023/03/28 21:34:18;;;;;;;5.33;4.00;;;;;;;10.10;39.98;99966.13;10351222;28;20233;-69
2023/03/28 21:39:20;;;;;;;6.53;5.10;;;;;;;9.55;41.82;100023.97;10352711;28;20845;-69
2023/03/28 21:44:22;;;;;;;8.20;5.03;;;;;;;9.81;41.98;100017.53;10353517;28;20427;-69
2023/03/28 21:49:24;;;;;;;5.67;4.33;;;;;;;8.89;42.43;100039.25;10351761;28;20258;-69
2023/03/28 21:54:25;;;;;;;5.03;4.53;;;;;;;9.05;42.42;100049.94;10355066;28;20261;-69
2023/03/28 21:59:27;;;;;;;4.90;3.70;;;;;;;8.77;43.02;100055.56;10353732;28;20233;-69
2023/03/28 22:04:28;;;;;;;4.13;3.43;;;;;;;8.69;45.97;100049.41;10350703;28;20645;-69
2023/03/28 22:09:32;;;;;;;4.37;3.23;;;;;;;9.31;44.64;100020.34;10351342;28;20233;-69
2023/03/28 22:14:34;;;;;;;2.77;2.57;;;;;;;7.42;46.82;100041.28;10349901;28;20229;-69
2023/03/28 22:19:36;;;;;;;3.53;3.20;;;;;;;8.56;45.50;99992.03;10349762;28;20239;-69
2023/03/28 22:24:38;;;;;;;4.50;2.77;;;;;;;9.90;43.74;99955.03;10344910;28;20240;-69
2023/03/28 22:29:40;;;;;;;3.07;2.87;;;;;;;10.13;42.85;99912.28;10351663;28;20234;-69
2023/03/28 22:34:42;;;;;;;3.87;3.03;;;;;;;12.59;40.72;99887.03;10348789;28;20236;-69
2023/03/28 22:39:43;;;;;;;3.20;2.90;;;;;;;10.69;43.22;99918.16;10348630;28;20742;-69
2023/03/28 22:44:46;;;;;;;4.07;3.33;;;;;;;10.44;44.50;99908.69;10343962;28;20688;-69
2023/03/28 22:49:47;;;;;;;5.77;3.60;;;;;;;8.88;47.43;99901.50;10347103;28;20236;-69
2023/03/28 22:54:51;;;;;;;4.13;3.40;;;;;;;9.06;46.92;99880.75;10355375;28;20262;-69
2023/03/28 22:59:55;;;;;;;4.00;3.70;;;;;;;9.50;46.93;99866.03;10346694;28;20235;-69
2023/03/28 23:04:57;;;;;;;5.53;3.67;;;;;;;8.23;48.31;99881.88;10356182;28;20630;-69
2023/03/28 23:09:59;;;;;;;4.00;3.50;;;;;;;10.45;45.43;99830.94;10356989;28;20776;-70
2023/03/28 23:15:01;;;;;;;4.37;3.30;;;;;;;9.88;46.71;99859.00;10354095;28;20227;-69
2023/03/28 23:20:09;;;;;;;3.57;3.27;;;;;;;10.16;45.18;99850.44;10359383;28;20226;-69
2023/03/28 23:25:11;;;;;;;6.07;2.93;;;;;;;9.92;45.47;99849.63;10345964;28;20288;-70
2023/03/28 23:30:14;;;;;;;3.53;3.10;;;;;;;11.13;43.62;99816.66;10354583;28;20323;-69
2023/03/28 23:35:16;;;;;;;4.10;3.43;;;;;;;11.48;42.80;99835.63;10347744;28;20708;-69
2023/03/28 23:40:17;;;;;;;3.07;2.87;;;;;;;10.04;45.23;99863.41;10353732;28;20241;-70
2023/03/28 23:45:19;;;;;;;4.57;3.33;;;;;;;11.40;43.81;99833.88;10352187;28;20667;-70
2023/03/28 23:50:21;;;;;;;4.77;2.90;;;;;;;11.36;43.27;99852.19;10358453;28;20288;-68
2023/03/28 23:55:22;;;;;;;4.33;3.40;;;;;;;9.82;45.82;99856.16;10345245;28;20233;-69
